sensor_id;sensor_type;location;lat;lon;timestamp;P1;durP1;ratioP1;P2;durP2;ratioP2
24151;SDS011;12311;50.866;4.332;2022-09-02T00:00:47;2.95;;;1.38;;
24151;SDS011;12311;50.866;4.332;2022-09-02T00:03:16;2.30;;;1.60;;
24151;SDS011;12311;50.866;4.332;2022-09-02T00:05:42;2.95;;;1.15;;
24151;SDS011;12311;50.866;4.332;2022-09-02T00:08:08;5.05;;;2.05;;
24151;SDS011;12311;50.866;4.332;2022-09-02T00:10:35;21.80;;;1.60;;
24151;SDS011;12311;50.866;4.332;2022-09-02T00:13:03;4.68;;;1.90;;
24151;SDS011;12311;50.866;4.332;2022-09-02T00:15:31;3.58;;;2.00;;
24151;SDS011;12311;50.866;4.332;2022-09-02T00:17:58;2.28;;;1.60;;
24151;SDS011;12311;50.866;4.332;2022-09-02T00:20:24;3.20;;;1.45;;
24151;SDS011;12311;50.866;4.332;2022-09-02T00:22:49;2.38;;;1.50;;
24151;SDS011;12311;50.866;4.332;2022-09-02T00:25:15;3.33;;;1.63;;
24151;SDS011;12311;50.866;4.332;2022-09-02T00:27:41;3.15;;;1.55;;
24151;SDS011;12311;50.866;4.332;2022-09-02T00:30:07;2.00;;;1.25;;
24151;SDS011;12311;50.866;4.332;2022-09-02T00:32:33;4.32;;;1.50;;
24151;SDS011;12311;50.866;4.332;2022-09-02T00:34:58;4.85;;;1.20;;
24151;SDS011;12311;50.866;4.332;2022-09-02T00:37:25;2.53;;;1.52;;
24151;SDS011;12311;50.866;4.332;2022-09-02T00:39:51;2.78;;;1.35;;
24151;SDS011;12311;50.866;4.332;2022-09-02T00:42:18;2.95;;;1.30;;
24151;SDS011;12311;50.866;4.332;2022-09-02T00:44:46;3.38;;;1.70;;
24151;SDS011;12311;50.866;4.332;2022-09-02T00:47:12;2.97;;;1.58;;
24151;SDS011;12311;50.866;4.332;2022-09-02T00:49:39;2.42;;;1.55;;
24151;SDS011;12311;50.866;4.332;2022-09-02T00:55:00;1.40;;;1.00;;
24151;SDS011;12311;50.866;4.332;2022-09-02T00:57:32;4.47;;;1.80;;
24151;SDS011;12311;50.866;4.332;2022-09-02T01:00:07;3.15;;;1.27;;
24151;SDS011;12311;50.866;4.332;2022-09-02T01:02:35;1.92;;;1.33;;
24151;SDS011;12311;50.866;4.332;2022-09-02T01:05:03;2.20;;;1.65;;
24151;SDS011;12311;50.866;4.332;2022-09-02T01:07:32;2.53;;;1.63;;
24151;SDS011;12311;50.866;4.332;2022-09-02T01:10:01;2.20;;;1.30;;
24151;SDS011;12311;50.866;4.332;2022-09-02T01:12:28;1.60;;;1.17;;
24151;SDS011;12311;50.866;4.332;2022-09-02T01:14:55;2.55;;;1.30;;
24151;SDS011;12311;50.866;4.332;2022-09-02T01:17:21;1.92;;;1.50;;
24151;SDS011;12311;50.866;4.332;2022-09-02T01:19:50;1.67;;;1.20;;
24151;SDS011;12311;50.866;4.332;2022-09-02T01:22:22;1.63;;;1.30;;
24151;SDS011;12311;50.866;4.332;2022-09-02T01:24:50;2.88;;;1.65;;
24151;SDS011;12311;50.866;4.332;2022-09-02T01:27:16;3.28;;;1.80;;
24151;SDS011;12311;50.866;4.332;2022-09-02T01:29:44;3.13;;;1.70;;
24151;SDS011;12311;50.866;4.332;2022-09-02T01:32:14;3.17;;;1.60;;
24151;SDS011;12311;50.866;4.332;2022-09-02T01:34:39;3.72;;;1.38;;
24151;SDS011;12311;50.866;4.332;2022-09-02T01:37:05;4.35;;;2.22;;
24151;SDS011;12311;50.866;4.332;2022-09-02T01:39:31;3.22;;;1.60;;
24151;SDS011;12311;50.866;4.332;2022-09-02T01:41:57;2.50;;;1.65;;
24151;SDS011;12311;50.866;4.332;2022-09-02T01:44:24;1.65;;;1.20;;
24151;SDS011;12311;50.866;4.332;2022-09-02T01:46:51;2.83;;;1.70;;
24151;SDS011;12311;50.866;4.332;2022-09-02T01:49:18;2.90;;;1.48;;
24151;SDS011;12311;50.866;4.332;2022-09-02T01:51:44;1.80;;;1.40;;
24151;SDS011;12311;50.866;4.332;2022-09-02T01:54:10;2.67;;;1.50;;
24151;SDS011;12311;50.866;4.332;2022-09-02T01:56:36;1.80;;;1.27;;
24151;SDS011;12311;50.866;4.332;2022-09-02T01:59:02;1.70;;;1.40;;
24151;SDS011;12311;50.866;4.332;2022-09-02T02:01:31;2.60;;;1.60;;
24151;SDS011;12311;50.866;4.332;2022-09-02T02:03:59;3.50;;;1.40;;
24151;SDS011;12311;50.866;4.332;2022-09-02T02:06:25;3.10;;;1.50;;
24151;SDS011;12311;50.866;4.332;2022-09-02T02:08:51;2.58;;;1.70;;
24151;SDS011;12311;50.866;4.332;2022-09-02T02:11:20;2.22;;;1.50;;
24151;SDS011;12311;50.866;4.332;2022-09-02T02:13:48;4.97;;;1.70;;
24151;SDS011;12311;50.866;4.332;2022-09-02T02:16:14;3.08;;;2.05;;
24151;SDS011;12311;50.866;4.332;2022-09-02T02:18:40;2.13;;;1.40;;
24151;SDS011;12311;50.866;4.332;2022-09-02T02:21:06;4.05;;;1.77;;
24151;SDS011;12311;50.866;4.332;2022-09-02T02:23:32;2.70;;;1.48;;
24151;SDS011;12311;50.866;4.332;2022-09-02T02:25:57;2.38;;;1.30;;
24151;SDS011;12311;50.866;4.332;2022-09-02T02:28:23;12.13;;;2.03;;
24151;SDS011;12311;50.866;4.332;2022-09-02T02:30:49;2.25;;;1.52;;
24151;SDS011;12311;50.866;4.332;2022-09-02T02:33:14;1.88;;;1.65;;
24151;SDS011;12311;50.866;4.332;2022-09-02T02:35:40;4.93;;;1.35;;
24151;SDS011;12311;50.866;4.332;2022-09-02T02:38:06;9.23;;;1.60;;
24151;SDS011;12311;50.866;4.332;2022-09-02T02:40:32;9.98;;;1.90;;
24151;SDS011;12311;50.866;4.332;2022-09-02T02:42:58;3.58;;;1.65;;
24151;SDS011;12311;50.866;4.332;2022-09-02T02:45:24;1.67;;;1.15;;
24151;SDS011;12311;50.866;4.332;2022-09-02T02:47:50;2.45;;;1.50;;
24151;SDS011;12311;50.866;4.332;2022-09-02T02:50:17;2.05;;;1.48;;
24151;SDS011;12311;50.866;4.332;2022-09-02T02:52:44;2.55;;;1.33;;
24151;SDS011;12311;50.866;4.332;2022-09-02T02:55:10;2.15;;;1.58;;
24151;SDS011;12311;50.866;4.332;2022-09-02T02:57:38;3.00;;;1.88;;
24151;SDS011;12311;50.866;4.332;2022-09-02T03:00:24;3.05;;;1.80;;
24151;SDS011;12311;50.866;4.332;2022-09-02T03:02:54;2.85;;;2.17;;
24151;SDS011;12311;50.866;4.332;2022-09-02T03:05:21;1.83;;;1.40;;
24151;SDS011;12311;50.866;4.332;2022-09-02T03:07:46;2.83;;;1.60;;
24151;SDS011;12311;50.866;4.332;2022-09-02T03:10:12;2.63;;;1.65;;
24151;SDS011;12311;50.866;4.332;2022-09-02T03:12:38;2.78;;;1.70;;
24151;SDS011;12311;50.866;4.332;2022-09-02T03:15:05;3.28;;;1.40;;
24151;SDS011;12311;50.866;4.332;2022-09-02T03:17:32;3.28;;;1.70;;
24151;SDS011;12311;50.866;4.332;2022-09-02T03:19:58;6.88;;;2.08;;
24151;SDS011;12311;50.866;4.332;2022-09-02T03:22:25;1.98;;;1.30;;
24151;SDS011;12311;50.866;4.332;2022-09-02T03:24:51;2.28;;;1.52;;
24151;SDS011;12311;50.866;4.332;2022-09-02T03:27:17;2.78;;;1.50;;
24151;SDS011;12311;50.866;4.332;2022-09-02T03:29:43;1.88;;;1.50;;
24151;SDS011;12311;50.866;4.332;2022-09-02T03:32:09;2.67;;;1.42;;
24151;SDS011;12311;50.866;4.332;2022-09-02T03:34:35;2.83;;;1.60;;
24151;SDS011;12311;50.866;4.332;2022-09-02T03:37:00;2.15;;;1.42;;
24151;SDS011;12311;50.866;4.332;2022-09-02T03:39:26;2.53;;;1.60;;
24151;SDS011;12311;50.866;4.332;2022-09-02T03:41:52;2.95;;;1.45;;
24151;SDS011;12311;50.866;4.332;2022-09-02T03:44:18;2.33;;;1.38;;
24151;SDS011;12311;50.866;4.332;2022-09-02T03:46:44;2.92;;;1.80;;
24151;SDS011;12311;50.866;4.332;2022-09-02T03:49:10;2.88;;;1.70;;
24151;SDS011;12311;50.866;4.332;2022-09-02T03:51:38;3.30;;;1.85;;
24151;SDS011;12311;50.866;4.332;2022-09-02T03:54:05;7.10;;;2.65;;
24151;SDS011;12311;50.866;4.332;2022-09-02T03:56:31;2.40;;;1.40;;
24151;SDS011;12311;50.866;4.332;2022-09-02T03:58:58;2.42;;;1.90;;
24151;SDS011;12311;50.866;4.332;2022-09-02T04:01:24;2.88;;;2.13;;
24151;SDS011;12311;50.866;4.332;2022-09-02T04:03:50;3.38;;;1.85;;
24151;SDS011;12311;50.866;4.332;2022-09-02T04:06:17;5.18;;;1.83;;
24151;SDS011;12311;50.866;4.332;2022-09-02T04:08:45;2.83;;;2.17;;
24151;SDS011;12311;50.866;4.332;2022-09-02T04:11:13;2.22;;;1.30;;
24151;SDS011;12311;50.866;4.332;2022-09-02T04:13:42;2.90;;;1.83;;
24151;SDS011;12311;50.866;4.332;2022-09-02T04:16:09;2.50;;;1.50;;
24151;SDS011;12311;50.866;4.332;2022-09-02T04:18:38;6.30;;;1.75;;
24151;SDS011;12311;50.866;4.332;2022-09-02T04:21:04;3.00;;;2.03;;
24151;SDS011;12311;50.866;4.332;2022-09-02T04:23:30;4.22;;;2.22;;
24151;SDS011;12311;50.866;4.332;2022-09-02T04:25:57;7.45;;;1.92;;
24151;SDS011;12311;50.866;4.332;2022-09-02T04:28:23;3.25;;;1.52;;
24151;SDS011;12311;50.866;4.332;2022-09-02T04:30:49;3.92;;;1.80;;
24151;SDS011;12311;50.866;4.332;2022-09-02T04:33:15;3.28;;;2.10;;
24151;SDS011;12311;50.866;4.332;2022-09-02T04:35:41;5.45;;;1.90;;
24151;SDS011;12311;50.866;4.332;2022-09-02T04:38:08;3.85;;;1.75;;
24151;SDS011;12311;50.866;4.332;2022-09-02T04:40:38;5.90;;;2.22;;
24151;SDS011;12311;50.866;4.332;2022-09-02T04:43:05;2.25;;;1.40;;
24151;SDS011;12311;50.866;4.332;2022-09-02T04:45:31;2.90;;;1.90;;
24151;SDS011;12311;50.866;4.332;2022-09-02T04:47:56;2.45;;;1.60;;
24151;SDS011;12311;50.866;4.332;2022-09-02T04:50:22;12.70;;;3.55;;
24151;SDS011;12311;50.866;4.332;2022-09-02T04:52:48;3.33;;;2.10;;
24151;SDS011;12311;50.866;4.332;2022-09-02T04:55:13;3.67;;;1.70;;
24151;SDS011;12311;50.866;4.332;2022-09-02T04:57:39;3.20;;;2.15;;
24151;SDS011;12311;50.866;4.332;2022-09-02T05:00:05;9.90;;;2.90;;
24151;SDS011;12311;50.866;4.332;2022-09-02T05:02:32;11.98;;;2.13;;
24151;SDS011;12311;50.866;4.332;2022-09-02T05:04:58;3.50;;;1.60;;
24151;SDS011;12311;50.866;4.332;2022-09-02T05:07:24;14.30;;;2.50;;
24151;SDS011;12311;50.866;4.332;2022-09-02T05:09:54;2.92;;;1.95;;
24151;SDS011;12311;50.866;4.332;2022-09-02T05:12:24;7.03;;;2.40;;
24151;SDS011;12311;50.866;4.332;2022-09-02T05:14:52;6.75;;;1.73;;
24151;SDS011;12311;50.866;4.332;2022-09-02T05:17:18;3.08;;;1.52;;
24151;SDS011;12311;50.866;4.332;2022-09-02T05:19:44;6.22;;;2.20;;
24151;SDS011;12311;50.866;4.332;2022-09-02T05:22:09;3.70;;;1.80;;
24151;SDS011;12311;50.866;4.332;2022-09-02T05:24:35;3.55;;;2.22;;
24151;SDS011;12311;50.866;4.332;2022-09-02T05:27:01;3.42;;;1.90;;
24151;SDS011;12311;50.866;4.332;2022-09-02T05:29:26;3.38;;;2.10;;
24151;SDS011;12311;50.866;4.332;2022-09-02T05:31:52;7.97;;;2.67;;
24151;SDS011;12311;50.866;4.332;2022-09-02T05:34:18;5.65;;;1.98;;
24151;SDS011;12311;50.866;4.332;2022-09-02T05:36:43;5.07;;;2.20;;
24151;SDS011;12311;50.866;4.332;2022-09-02T05:39:09;4.97;;;1.75;;
24151;SDS011;12311;50.866;4.332;2022-09-02T05:41:35;4.85;;;2.40;;
24151;SDS011;12311;50.866;4.332;2022-09-02T05:44:01;3.90;;;2.53;;
24151;SDS011;12311;50.866;4.332;2022-09-02T05:46:28;6.78;;;2.38;;
24151;SDS011;12311;50.866;4.332;2022-09-02T05:48:55;5.43;;;1.98;;
24151;SDS011;12311;50.866;4.332;2022-09-02T05:51:31;2.90;;;1.77;;
24151;SDS011;12311;50.866;4.332;2022-09-02T05:53:59;2.63;;;1.70;;
24151;SDS011;12311;50.866;4.332;2022-09-02T05:56:25;3.58;;;2.20;;
24151;SDS011;12311;50.866;4.332;2022-09-02T05:58:51;4.78;;;2.00;;
24151;SDS011;12311;50.866;4.332;2022-09-02T06:01:19;6.28;;;2.20;;
24151;SDS011;12311;50.866;4.332;2022-09-02T06:03:45;10.00;;;2.38;;
24151;SDS011;12311;50.866;4.332;2022-09-02T06:06:11;7.45;;;2.00;;
24151;SDS011;12311;50.866;4.332;2022-09-02T06:08:37;6.57;;;2.78;;
24151;SDS011;12311;50.866;4.332;2022-09-02T06:11:05;6.68;;;2.20;;
24151;SDS011;12311;50.866;4.332;2022-09-02T06:13:34;5.22;;;2.60;;
24151;SDS011;12311;50.866;4.332;2022-09-02T06:16:01;4.82;;;2.30;;
24151;SDS011;12311;50.866;4.332;2022-09-02T06:18:28;5.03;;;1.95;;
24151;SDS011;12311;50.866;4.332;2022-09-02T06:20:54;5.20;;;2.60;;
24151;SDS011;12311;50.866;4.332;2022-09-02T06:23:19;5.22;;;2.38;;
24151;SDS011;12311;50.866;4.332;2022-09-02T06:25:46;5.82;;;2.55;;
24151;SDS011;12311;50.866;4.332;2022-09-02T06:28:13;4.28;;;2.15;;
24151;SDS011;12311;50.866;4.332;2022-09-02T06:30:40;5.18;;;2.58;;
24151;SDS011;12311;50.866;4.332;2022-09-02T06:33:07;4.63;;;1.92;;
24151;SDS011;12311;50.866;4.332;2022-09-02T06:35:37;8.80;;;2.83;;
24151;SDS011;12311;50.866;4.332;2022-09-02T06:38:06;4.05;;;1.77;;
24151;SDS011;12311;50.866;4.332;2022-09-02T06:40:32;4.57;;;2.03;;
24151;SDS011;12311;50.866;4.332;2022-09-02T06:42:58;3.85;;;1.67;;
24151;SDS011;12311;50.866;4.332;2022-09-02T06:45:24;6.10;;;2.33;;
24151;SDS011;12311;50.866;4.332;2022-09-02T06:47:50;2.75;;;1.83;;
24151;SDS011;12311;50.866;4.332;2022-09-02T06:50:17;5.45;;;2.13;;
24151;SDS011;12311;50.866;4.332;2022-09-02T06:52:43;4.32;;;2.22;;
24151;SDS011;12311;50.866;4.332;2022-09-02T06:55:09;4.85;;;2.25;;
24151;SDS011;12311;50.866;4.332;2022-09-02T06:57:36;5.03;;;1.77;;
24151;SDS011;12311;50.866;4.332;2022-09-02T07:00:03;4.55;;;1.90;;
24151;SDS011;12311;50.866;4.332;2022-09-02T07:02:30;4.20;;;1.77;;
24151;SDS011;12311;50.866;4.332;2022-09-02T07:04:56;2.15;;;1.73;;
24151;SDS011;12311;50.866;4.332;2022-09-02T07:07:40;2.85;;;1.73;;
24151;SDS011;12311;50.866;4.332;2022-09-02T07:10:09;2.72;;;1.65;;
24151;SDS011;12311;50.866;4.332;2022-09-02T07:12:37;2.45;;;1.65;;
24151;SDS011;12311;50.866;4.332;2022-09-02T07:15:04;3.15;;;1.75;;
24151;SDS011;12311;50.866;4.332;2022-09-02T07:17:30;7.40;;;2.00;;
24151;SDS011;12311;50.866;4.332;2022-09-02T07:19:57;3.33;;;1.75;;
24151;SDS011;12311;50.866;4.332;2022-09-02T07:22:27;3.13;;;1.80;;
24151;SDS011;12311;50.866;4.332;2022-09-02T07:24:53;4.95;;;1.90;;
24151;SDS011;12311;50.866;4.332;2022-09-02T07:27:20;4.80;;;2.03;;
24151;SDS011;12311;50.866;4.332;2022-09-02T07:29:46;7.82;;;2.40;;
24151;SDS011;12311;50.866;4.332;2022-09-02T07:32:13;3.22;;;1.80;;
24151;SDS011;12311;50.866;4.332;2022-09-02T07:34:42;3.88;;;2.20;;
24151;SDS011;12311;50.866;4.332;2022-09-02T07:37:08;5.65;;;2.25;;
24151;SDS011;12311;50.866;4.332;2022-09-02T07:39:34;2.70;;;1.50;;
24151;SDS011;12311;50.866;4.332;2022-09-02T07:41:59;3.97;;;1.80;;
24151;SDS011;12311;50.866;4.332;2022-09-02T07:44:26;2.53;;;1.80;;
24151;SDS011;12311;50.866;4.332;2022-09-02T07:46:51;3.15;;;1.63;;
24151;SDS011;12311;50.866;4.332;2022-09-02T07:49:17;4.45;;;1.60;;
24151;SDS011;12311;50.866;4.332;2022-09-02T07:51:45;3.08;;;1.80;;
24151;SDS011;12311;50.866;4.332;2022-09-02T07:54:13;3.88;;;1.70;;
24151;SDS011;12311;50.866;4.332;2022-09-02T07:56:40;3.42;;;1.60;;
24151;SDS011;12311;50.866;4.332;2022-09-02T07:59:07;3.15;;;1.50;;
24151;SDS011;12311;50.866;4.332;2022-09-02T08:01:33;3.72;;;2.10;;
24151;SDS011;12311;50.866;4.332;2022-09-02T08:03:59;2.28;;;1.75;;
24151;SDS011;12311;50.866;4.332;2022-09-02T08:06:24;1.73;;;1.52;;
24151;SDS011;12311;50.866;4.332;2022-09-02T08:08:52;3.20;;;1.52;;
24151;SDS011;12311;50.866;4.332;2022-09-02T08:11:19;4.03;;;1.83;;
24151;SDS011;12311;50.866;4.332;2022-09-02T08:13:46;2.10;;;1.50;;
24151;SDS011;12311;50.866;4.332;2022-09-02T08:16:12;3.05;;;1.70;;
24151;SDS011;12311;50.866;4.332;2022-09-02T08:18:38;2.45;;;1.45;;
24151;SDS011;12311;50.866;4.332;2022-09-02T08:21:04;2.90;;;1.52;;
24151;SDS011;12311;50.866;4.332;2022-09-02T08:23:30;3.45;;;1.92;;
24151;SDS011;12311;50.866;4.332;2022-09-02T08:25:59;3.35;;;1.60;;
24151;SDS011;12311;50.866;4.332;2022-09-02T08:28:26;2.67;;;1.73;;
24151;SDS011;12311;50.866;4.332;2022-09-02T08:30:53;2.88;;;1.63;;
24151;SDS011;12311;50.866;4.332;2022-09-02T08:33:22;3.47;;;1.85;;
24151;SDS011;12311;50.866;4.332;2022-09-02T08:35:48;2.28;;;1.40;;
24151;SDS011;12311;50.866;4.332;2022-09-02T08:38:13;2.30;;;1.50;;
24151;SDS011;12311;50.866;4.332;2022-09-02T08:40:40;2.92;;;1.70;;
24151;SDS011;12311;50.866;4.332;2022-09-02T08:46:02;3.00;;;1.70;;
24151;SDS011;12311;50.866;4.332;2022-09-02T08:48:39;2.00;;;1.48;;
24151;SDS011;12311;50.866;4.332;2022-09-02T08:54:29;2.30;;;1.45;;
24151;SDS011;12311;50.866;4.332;2022-09-02T08:57:09;3.53;;;1.60;;
24151;SDS011;12311;50.866;4.332;2022-09-02T08:59:36;3.42;;;1.38;;
24151;SDS011;12311;50.866;4.332;2022-09-02T09:05:02;2.78;;;1.55;;
24151;SDS011;12311;50.866;4.332;2022-09-02T09:07:39;1.70;;;1.38;;
24151;SDS011;12311;50.866;4.332;2022-09-02T09:19:11;2.65;;;1.40;;
24151;SDS011;12311;50.866;4.332;2022-09-02T09:21:39;2.25;;;1.65;;
24151;SDS011;12311;50.866;4.332;2022-09-02T09:24:07;2.05;;;1.58;;
24151;SDS011;12311;50.866;4.332;2022-09-02T09:26:51;3.13;;;1.40;;
24151;SDS011;12311;50.866;4.332;2022-09-02T09:29:18;3.53;;;1.80;;
24151;SDS011;12311;50.866;4.332;2022-09-02T09:31:44;2.45;;;1.40;;
24151;SDS011;12311;50.866;4.332;2022-09-02T09:34:17;3.72;;;1.27;;
24151;SDS011;12311;50.866;4.332;2022-09-02T09:36:44;2.60;;;1.55;;
24151;SDS011;12311;50.866;4.332;2022-09-02T09:39:21;2.45;;;1.27;;
24151;SDS011;12311;50.866;4.332;2022-09-02T09:41:51;4.05;;;1.45;;
24151;SDS011;12311;50.866;4.332;2022-09-02T09:44:35;2.28;;;1.50;;
24151;SDS011;12311;50.866;4.332;2022-09-02T09:47:08;2.75;;;1.58;;
24151;SDS011;12311;50.866;4.332;2022-09-02T09:49:39;2.03;;;1.27;;
24151;SDS011;12311;50.866;4.332;2022-09-02T09:52:05;2.22;;;1.50;;
24151;SDS011;12311;50.866;4.332;2022-09-02T09:54:31;2.47;;;1.30;;
24151;SDS011;12311;50.866;4.332;2022-09-02T09:57:12;1.75;;;1.38;;
24151;SDS011;12311;50.866;4.332;2022-09-02T09:59:48;1.85;;;1.30;;
24151;SDS011;12311;50.866;4.332;2022-09-02T10:02:22;3.13;;;1.70;;
24151;SDS011;12311;50.866;4.332;2022-09-02T10:04:53;1.67;;;1.30;;
24151;SDS011;12311;50.866;4.332;2022-09-02T10:12:49;1.65;;;1.10;;
24151;SDS011;12311;50.866;4.332;2022-09-02T10:15:36;2.28;;;1.15;;
24151;SDS011;12311;50.866;4.332;2022-09-02T10:18:37;2.88;;;1.52;;
24151;SDS011;12311;50.866;4.332;2022-09-02T10:24:06;1.98;;;1.40;;
24151;SDS011;12311;50.866;4.332;2022-09-02T10:26:37;2.42;;;1.60;;
24151;SDS011;12311;50.866;4.332;2022-09-02T10:37:10;2.88;;;1.75;;
24151;SDS011;12311;50.866;4.332;2022-09-02T10:39:55;2.42;;;1.40;;
24151;SDS011;12311;50.866;4.332;2022-09-02T10:42:39;1.58;;;1.13;;
24151;SDS011;12311;50.866;4.332;2022-09-02T10:47:38;2.17;;;1.58;;
24151;SDS011;12311;50.866;4.332;2022-09-02T10:50:07;2.45;;;1.52;;
24151;SDS011;12311;50.866;4.332;2022-09-02T10:57:53;2.70;;;1.13;;
24151;SDS011;12311;50.866;4.332;2022-09-02T11:00:25;2.85;;;1.67;;
24151;SDS011;12311;50.866;4.332;2022-09-02T11:05:38;1.70;;;1.08;;
24151;SDS011;12311;50.866;4.332;2022-09-02T11:08:13;2.58;;;1.27;;
24151;SDS011;12311;50.866;4.332;2022-09-02T11:13:30;3.28;;;1.60;;
24151;SDS011;12311;50.866;4.332;2022-09-02T11:16:06;2.20;;;1.30;;
24151;SDS011;12311;50.866;4.332;2022-09-02T11:29:17;1.60;;;1.08;;
24151;SDS011;12311;50.866;4.332;2022-09-02T11:32:03;2.25;;;1.50;;
24151;SDS011;12311;50.866;4.332;2022-09-02T11:37:02;2.28;;;1.25;;
24151;SDS011;12311;50.866;4.332;2022-09-02T11:53:23;1.67;;;1.23;;
24151;SDS011;12311;50.866;4.332;2022-09-02T11:56:07;1.42;;;1.10;;
24151;SDS011;12311;50.866;4.332;2022-09-02T11:58:41;1.45;;;1.10;;
24151;SDS011;12311;50.866;4.332;2022-09-02T12:03:48;1.23;;;0.90;;
24151;SDS011;12311;50.866;4.332;2022-09-02T12:06:19;1.65;;;1.08;;
24151;SDS011;12311;50.866;4.332;2022-09-02T12:17:00;2.00;;;1.10;;
24151;SDS011;12311;50.866;4.332;2022-09-02T12:19:46;1.08;;;0.80;;
24151;SDS011;12311;50.866;4.332;2022-09-02T12:24:49;1.55;;;0.90;;
24151;SDS011;12311;50.866;4.332;2022-09-02T12:27:25;1.55;;;1.00;;
24151;SDS011;12311;50.866;4.332;2022-09-02T12:29:58;0.88;;;0.70;;
24151;SDS011;12311;50.866;4.332;2022-09-02T12:35:09;1.00;;;0.80;;
24151;SDS011;12311;50.866;4.332;2022-09-02T12:37:56;1.08;;;0.80;;
24151;SDS011;12311;50.866;4.332;2022-09-02T12:51:59;1.50;;;1.00;;
24151;SDS011;12311;50.866;4.332;2022-09-02T12:55:03;1.58;;;1.00;;
24151;SDS011;12311;50.866;4.332;2022-09-02T12:57:25;0.90;;;0.70;;
24151;SDS011;12311;50.866;4.332;2022-09-02T13:00:06;1.63;;;0.80;;
24151;SDS011;12311;50.866;4.332;2022-09-02T13:13:23;1.02;;;0.75;;
24151;SDS011;12311;50.866;4.332;2022-09-02T13:32:22;1.23;;;0.90;;
24151;SDS011;12311;50.866;4.332;2022-09-02T13:34:50;1.50;;;0.90;;
24151;SDS011;12311;50.866;4.332;2022-09-02T13:37:27;1.40;;;0.98;;
24151;SDS011;12311;50.866;4.332;2022-09-02T13:40:46;1.05;;;0.80;;
24151;SDS011;12311;50.866;4.332;2022-09-02T13:42:58;1.17;;;0.82;;
24151;SDS011;12311;50.866;4.332;2022-09-02T13:45:26;1.10;;;1.00;;
24151;SDS011;12311;50.866;4.332;2022-09-02T13:47:53;1.20;;;0.82;;
24151;SDS011;12311;50.866;4.332;2022-09-02T13:50:22;1.20;;;0.90;;
24151;SDS011;12311;50.866;4.332;2022-09-02T13:55:23;1.48;;;0.98;;
24151;SDS011;12311;50.866;4.332;2022-09-02T13:57:57;1.50;;;0.90;;
24151;SDS011;12311;50.866;4.332;2022-09-02T14:00:36;1.27;;;0.95;;
24151;SDS011;12311;50.866;4.332;2022-09-02T14:03:08;1.20;;;0.90;;
24151;SDS011;12311;50.866;4.332;2022-09-02T14:05:37;0.93;;;0.82;;
24151;SDS011;12311;50.866;4.332;2022-09-02T14:08:06;0.70;;;0.60;;
24151;SDS011;12311;50.866;4.332;2022-09-02T14:10:36;1.52;;;0.90;;
24151;SDS011;12311;50.866;4.332;2022-09-02T14:13:05;1.45;;;0.90;;
24151;SDS011;12311;50.866;4.332;2022-09-02T14:15:32;0.80;;;0.80;;
24151;SDS011;12311;50.866;4.332;2022-09-02T14:18:08;1.00;;;0.70;;
24151;SDS011;12311;50.866;4.332;2022-09-02T14:20:59;2.45;;;1.00;;
24151;SDS011;12311;50.866;4.332;2022-09-02T14:23:31;1.10;;;0.90;;
24151;SDS011;12311;50.866;4.332;2022-09-02T14:25:59;4.15;;;0.85;;
24151;SDS011;12311;50.866;4.332;2022-09-02T14:28:27;1.30;;;0.93;;
24151;SDS011;12311;50.866;4.332;2022-09-02T14:30:59;1.13;;;0.93;;
24151;SDS011;12311;50.866;4.332;2022-09-02T14:33:38;0.80;;;0.80;;
24151;SDS011;12311;50.866;4.332;2022-09-02T14:41:21;1.40;;;0.60;;
24151;SDS011;12311;50.866;4.332;2022-09-02T14:46:32;1.05;;;0.70;;
24151;SDS011;12311;50.866;4.332;2022-09-02T14:51:35;1.23;;;0.70;;
24151;SDS011;12311;50.866;4.332;2022-09-02T14:54:08;1.17;;;0.68;;
24151;SDS011;12311;50.866;4.332;2022-09-02T14:56:42;0.60;;;0.60;;
24151;SDS011;12311;50.866;4.332;2022-09-02T14:59:15;0.70;;;0.60;;
24151;SDS011;12311;50.866;4.332;2022-09-02T15:01:41;0.68;;;0.63;;
24151;SDS011;12311;50.866;4.332;2022-09-02T15:04:11;0.70;;;0.70;;
24151;SDS011;12311;50.866;4.332;2022-09-02T15:06:37;1.50;;;0.80;;
24151;SDS011;12311;50.866;4.332;2022-09-02T15:09:02;0.73;;;0.70;;
24151;SDS011;12311;50.866;4.332;2022-09-02T15:11:28;1.15;;;0.90;;
24151;SDS011;12311;50.866;4.332;2022-09-02T15:13:54;0.75;;;0.70;;
24151;SDS011;12311;50.866;4.332;2022-09-02T15:16:20;1.80;;;1.38;;
24151;SDS011;12311;50.866;4.332;2022-09-02T15:18:46;1.23;;;0.70;;
24151;SDS011;12311;50.866;4.332;2022-09-02T15:21:11;0.57;;;0.50;;
24151;SDS011;12311;50.866;4.332;2022-09-02T15:23:37;1.67;;;0.98;;
24151;SDS011;12311;50.866;4.332;2022-09-02T15:26:04;0.82;;;0.70;;
24151;SDS011;12311;50.866;4.332;2022-09-02T15:28:31;0.80;;;0.63;;
24151;SDS011;12311;50.866;4.332;2022-09-02T15:30:57;0.95;;;0.70;;
24151;SDS011;12311;50.866;4.332;2022-09-02T15:33:23;0.88;;;0.80;;
24151;SDS011;12311;50.866;4.332;2022-09-02T15:35:49;0.70;;;0.70;;
24151;SDS011;12311;50.866;4.332;2022-09-02T15:38:14;1.20;;;1.00;;
24151;SDS011;12311;50.866;4.332;2022-09-02T15:40:41;1.42;;;0.80;;
24151;SDS011;12311;50.866;4.332;2022-09-02T15:43:08;0.93;;;0.70;;
24151;SDS011;12311;50.866;4.332;2022-09-02T15:45:33;0.88;;;0.70;;
24151;SDS011;12311;50.866;4.332;2022-09-02T15:48:01;1.67;;;0.77;;
24151;SDS011;12311;50.866;4.332;2022-09-02T15:50:29;6.47;;;1.00;;
24151;SDS011;12311;50.866;4.332;2022-09-02T15:52:56;0.95;;;0.60;;
24151;SDS011;12311;50.866;4.332;2022-09-02T15:55:21;1.65;;;1.13;;
24151;SDS011;12311;50.866;4.332;2022-09-02T15:57:47;1.27;;;0.82;;
24151;SDS011;12311;50.866;4.332;2022-09-02T16:00:13;1.30;;;0.93;;
24151;SDS011;12311;50.866;4.332;2022-09-02T16:02:39;3.75;;;1.88;;
24151;SDS011;12311;50.866;4.332;2022-09-02T16:05:05;10.15;;;4.32;;
24151;SDS011;12311;50.866;4.332;2022-09-02T16:07:31;0.65;;;0.60;;
24151;SDS011;12311;50.866;4.332;2022-09-02T16:09:57;2.58;;;0.65;;
24151;SDS011;12311;50.866;4.332;2022-09-02T16:12:22;2.58;;;1.15;;
24151;SDS011;12311;50.866;4.332;2022-09-02T16:14:49;1.23;;;0.90;;
24151;SDS011;12311;50.866;4.332;2022-09-02T16:17:15;2.13;;;1.45;;
24151;SDS011;12311;50.866;4.332;2022-09-02T16:19:41;3.10;;;1.52;;
24151;SDS011;12311;50.866;4.332;2022-09-02T16:22:06;2.47;;;1.30;;
24151;SDS011;12311;50.866;4.332;2022-09-02T16:24:32;1.63;;;1.05;;
24151;SDS011;12311;50.866;4.332;2022-09-02T16:26:58;4.55;;;2.53;;
24151;SDS011;12311;50.866;4.332;2022-09-02T16:29:23;5.10;;;1.70;;
24151;SDS011;12311;50.866;4.332;2022-09-02T16:31:51;2.85;;;1.50;;
24151;SDS011;12311;50.866;4.332;2022-09-02T16:34:18;1.77;;;1.10;;
24151;SDS011;12311;50.866;4.332;2022-09-02T16:36:45;2.75;;;1.67;;
24151;SDS011;12311;50.866;4.332;2022-09-02T16:39:13;1.00;;;0.68;;
24151;SDS011;12311;50.866;4.332;2022-09-02T16:41:43;1.50;;;1.10;;
24151;SDS011;12311;50.866;4.332;2022-09-02T16:44:16;1.00;;;0.70;;
24151;SDS011;12311;50.866;4.332;2022-09-02T16:46:44;0.77;;;0.65;;
24151;SDS011;12311;50.866;4.332;2022-09-02T16:49:12;1.20;;;0.80;;
24151;SDS011;12311;50.866;4.332;2022-09-02T16:51:42;2.15;;;1.05;;
24151;SDS011;12311;50.866;4.332;2022-09-02T16:54:09;1.08;;;0.93;;
24151;SDS011;12311;50.866;4.332;2022-09-02T16:56:35;1.13;;;0.90;;
24151;SDS011;12311;50.866;4.332;2022-09-02T16:59:02;1.58;;;1.10;;
24151;SDS011;12311;50.866;4.332;2022-09-02T17:01:29;1.70;;;1.23;;
24151;SDS011;12311;50.866;4.332;2022-09-02T17:03:55;1.00;;;0.80;;
24151;SDS011;12311;50.866;4.332;2022-09-02T17:06:22;0.82;;;0.80;;
24151;SDS011;12311;50.866;4.332;2022-09-02T17:08:48;1.52;;;0.90;;
24151;SDS011;12311;50.866;4.332;2022-09-02T17:11:27;1.55;;;0.80;;
24151;SDS011;12311;50.866;4.332;2022-09-02T17:14:01;2.13;;;1.02;;
24151;SDS011;12311;50.866;4.332;2022-09-02T17:16:30;1.63;;;1.10;;
24151;SDS011;12311;50.866;4.332;2022-09-02T17:18:57;2.28;;;1.27;;
24151;SDS011;12311;50.866;4.332;2022-09-02T17:21:42;1.08;;;0.88;;